createdAt,value
2023-03-06T00:02:00.553Z,-0.54
2023-03-06T00:04:27.921Z,-0.57
2023-03-06T00:06:54.434Z,-0.63
2023-03-06T00:09:22.282Z,-0.67
2023-03-06T00:11:50.366Z,-0.66
2023-03-06T00:14:17.217Z,-0.70
2023-03-06T00:16:45.074Z,-0.71
2023-03-06T00:19:12.643Z,-0.71
2023-03-06T00:21:39.120Z,-0.74
2023-03-06T00:24:05.663Z,-0.62
2023-03-06T00:26:32.277Z,-0.66
2023-03-06T00:28:58.855Z,-0.75
2023-03-06T00:31:27.622Z,-0.80
2023-03-06T00:33:57.528Z,-0.86
2023-03-06T00:36:23.996Z,-0.91
2023-03-06T00:38:50.405Z,-0.91
2023-03-06T00:41:19.331Z,-0.95
2023-03-06T00:43:45.848Z,-0.92
2023-03-06T00:46:12.915Z,-0.87
2023-03-06T00:48:41.089Z,-0.85
2023-03-06T00:51:07.623Z,-0.88
2023-03-06T00:53:36.979Z,-0.94
2023-03-06T00:56:03.883Z,-0.93
2023-03-06T00:58:35.806Z,-0.91
2023-03-06T01:01:05.903Z,-0.90
2023-03-06T01:03:35.600Z,-0.89
2023-03-06T01:06:02.125Z,-0.84
2023-03-06T01:08:32.835Z,-0.79
2023-03-06T01:11:01.348Z,-0.79
2023-03-06T01:13:30.622Z,-0.83
2023-03-06T01:15:57.142Z,-0.89
2023-03-06T01:18:23.774Z,-0.92
2023-03-06T01:20:52.837Z,-0.93
2023-03-06T01:23:19.330Z,-1.01
2023-03-06T01:25:48.463Z,-1.06
2023-03-06T01:28:16.482Z,-1.07
2023-03-06T01:30:43.105Z,-1.10
2023-03-06T01:33:09.804Z,-1.14
2023-03-06T01:35:37.616Z,-1.14
2023-03-06T01:38:05.728Z,-1.16
2023-03-06T01:40:32.554Z,-1.20
2023-03-06T01:42:59.562Z,-1.25
2023-03-06T01:45:27.389Z,-1.31
2023-03-06T01:47:54.316Z,-1.34
2023-03-06T01:50:21.194Z,-1.37
2023-03-06T01:52:50.284Z,-1.43
2023-03-06T01:55:17.835Z,-1.41
2023-03-06T01:57:46.789Z,-1.45
2023-03-06T02:00:14.630Z,-1.42
2023-03-06T02:02:41.471Z,-1.42
2023-03-06T02:05:08.033Z,-1.45
2023-03-06T02:07:34.936Z,-1.48
2023-03-06T02:10:01.733Z,-1.52
2023-03-06T02:12:28.218Z,-1.50
2023-03-06T02:14:54.839Z,-1.49
2023-03-06T02:17:21.443Z,-1.44
2023-03-06T02:19:49.985Z,-1.44
2023-03-06T02:22:16.776Z,-1.47
2023-03-06T02:24:43.774Z,-1.46
2023-03-06T02:27:13.122Z,-1.52
2023-03-06T02:29:39.768Z,-1.55
2023-03-06T02:32:08.654Z,-1.51
2023-03-06T02:34:36.959Z,-1.47
2023-03-06T02:37:03.706Z,-1.44
2023-03-06T02:39:30.499Z,-1.41
2023-03-06T02:41:57.359Z,-1.38
2023-03-06T02:44:24.275Z,-1.35
2023-03-06T02:46:53.314Z,-1.32
2023-03-06T02:49:26.566Z,-1.30
2023-03-06T02:51:54.645Z,-1.31
2023-03-06T02:54:21.705Z,-1.32
2023-03-06T02:56:49.740Z,-1.35
2023-03-06T02:59:16.634Z,-1.37
2023-03-06T03:01:43.384Z,-1.42
2023-03-06T03:04:09.947Z,-1.43
2023-03-06T03:06:36.527Z,-1.52
2023-03-06T03:09:08.981Z,-1.58
2023-03-06T03:31:30.415Z,-1.72
2023-03-06T03:39:31.652Z,-1.78
2023-03-06T03:42:11.162Z,-1.85
2023-03-06T03:46:19.877Z,-1.90
2023-03-06T03:56:51.024Z,-1.86
2023-03-06T04:11:37.104Z,-1.82
2023-03-06T04:23:37.540Z,-1.63
2023-03-06T04:34:21.798Z,-1.58
2023-03-06T04:40:00.166Z,-1.57
2023-03-06T05:01:51.942Z,-1.35
2023-03-06T05:04:19.700Z,-1.29
2023-03-06T05:06:52.688Z,-1.23
2023-03-06T05:09:26.728Z,-1.24
2023-03-06T05:11:53.196Z,-1.18
2023-03-06T05:14:22.850Z,-1.18
2023-03-06T05:53:20.031Z,-0.40
2023-03-06T08:27:21.944Z,2.81
2023-03-06T08:32:32.374Z,3.08
2023-03-06T08:34:58.827Z,3.17
2023-03-06T08:37:28.138Z,3.07
2023-03-06T08:39:54.629Z,3.14
2023-03-06T08:42:21.078Z,3.26
2023-03-06T08:44:47.729Z,3.37
2023-03-06T08:47:14.142Z,3.43
2023-03-06T08:49:42.636Z,3.52
2023-03-06T08:52:10.097Z,3.57
2023-03-06T08:54:39.252Z,3.61
2023-03-06T08:57:05.814Z,3.68
2023-03-06T08:59:32.294Z,3.77
2023-03-06T09:04:49.394Z,3.92
2023-03-06T09:07:15.867Z,4.01
2023-03-06T09:09:42.261Z,4.17
2023-03-06T09:12:23.673Z,4.37
2023-03-06T09:14:56.274Z,4.54
2023-03-06T09:20:15.250Z,4.63
2023-03-06T09:30:59.197Z,4.53
2023-03-06T09:33:26.293Z,4.60
2023-03-06T09:35:53.008Z,4.66
2023-03-06T09:38:19.922Z,4.75
2023-03-06T09:40:46.472Z,4.97
2023-03-06T09:43:13.069Z,5.24
2023-03-06T09:45:39.645Z,5.15
2023-03-06T09:48:08.489Z,5.41
2023-03-06T09:50:35.031Z,5.62
2023-03-06T09:53:01.394Z,5.26
2023-03-06T09:55:27.772Z,5.43
2023-03-06T09:57:54.231Z,5.43
2023-03-06T10:00:20.713Z,5.53
2023-03-06T10:02:48.196Z,5.30
2023-03-06T10:05:17.525Z,5.31
2023-03-06T10:07:46.238Z,5.47
2023-03-06T15:36:54.879Z,9.47
2023-03-06T15:39:21.429Z,9.26
2023-03-06T15:41:48.082Z,9.10
2023-03-06T15:44:15.617Z,9.13
2023-03-06T15:46:42.343Z,9.15
2023-03-06T15:49:08.797Z,9.23
2023-03-06T15:51:35.577Z,9.31
2023-03-06T15:54:12.404Z,9.37
2023-03-06T15:56:39.407Z,9.08
2023-03-06T15:59:05.807Z,8.93
2023-03-06T16:01:32.356Z,8.83
2023-03-06T16:06:42.280Z,8.74
2023-03-06T16:09:16.291Z,8.91
2023-03-06T16:11:44.119Z,8.94
2023-03-06T16:14:10.622Z,9.02
2023-03-06T16:16:38.271Z,8.88
2023-03-06T16:19:06.051Z,8.94
2023-03-06T16:21:34.125Z,8.99
2023-03-06T16:24:00.706Z,8.99
2023-03-06T16:26:27.616Z,8.79
2023-03-06T16:29:02.103Z,8.66
2023-03-06T16:37:03.473Z,8.01
2023-03-06T16:39:34.178Z,8.14
2023-03-06T16:42:07.185Z,8.19
2023-03-06T16:44:38.702Z,8.10
2023-03-06T16:47:09.426Z,8.03
2023-03-06T16:49:36.026Z,8.01
2023-03-06T16:52:02.530Z,8.00
2023-03-06T16:54:33.775Z,7.98
2023-03-06T16:57:08.082Z,7.91
2023-03-06T16:59:35.213Z,7.96
2023-03-06T17:02:01.825Z,7.87
2023-03-06T17:04:28.515Z,7.65
2023-03-06T17:06:59.473Z,7.68
2023-03-06T17:09:28.126Z,7.58
2023-03-06T17:11:58.111Z,7.47
2023-03-06T17:14:33.838Z,7.47
2023-03-06T17:17:18.589Z,7.40
2023-03-06T17:19:46.334Z,7.32
2023-03-06T17:22:16.321Z,7.28
2023-03-06T17:24:43.232Z,7.14
2023-03-06T17:27:10.274Z,7.08
2023-03-06T17:29:37.707Z,7.01
2023-03-06T17:32:06.890Z,6.91
2023-03-06T17:34:33.791Z,6.84
2023-03-06T17:37:00.358Z,6.76
2023-03-06T17:39:26.773Z,6.68
2023-03-06T17:41:53.174Z,6.61
2023-03-06T17:44:23.023Z,6.53
2023-03-06T17:46:49.866Z,6.45
2023-03-06T17:49:16.681Z,6.37
2023-03-06T17:51:47.000Z,6.25
2023-03-06T17:54:13.544Z,6.03
2023-03-06T17:56:40.182Z,5.76
2023-03-06T17:59:06.787Z,5.75
2023-03-06T18:01:33.392Z,5.74
2023-03-06T18:03:59.766Z,5.69
2023-03-06T18:06:26.360Z,5.66
2023-03-06T18:08:56.692Z,5.64
2023-03-06T18:11:23.081Z,5.54
2023-03-06T18:13:49.762Z,5.55
2023-03-06T18:16:16.158Z,5.51
2023-03-06T18:18:44.946Z,5.56
2023-03-06T18:21:15.861Z,5.40
2023-03-06T18:23:42.317Z,5.36
2023-03-06T18:26:16.215Z,5.35
2023-03-06T18:28:46.048Z,5.32
2023-03-06T18:31:12.792Z,5.38
2023-03-06T18:33:39.351Z,5.33
2023-03-06T18:36:06.791Z,5.33
2023-03-06T18:38:34.935Z,5.32
2023-03-06T18:41:01.526Z,5.18
2023-03-06T18:43:27.998Z,5.18
2023-03-06T18:45:54.456Z,5.13
2023-03-06T18:48:21.103Z,5.16
2023-03-06T18:50:47.922Z,5.13
2023-03-06T18:53:17.352Z,5.03
2023-03-06T18:55:43.826Z,4.94
2023-03-06T18:58:10.475Z,5.03
2023-03-06T19:00:37.927Z,4.99
2023-03-06T19:03:06.576Z,4.91
2023-03-06T19:05:35.798Z,4.96
2023-03-06T19:08:02.464Z,4.91
2023-03-06T19:10:29.171Z,4.88
2023-03-06T19:12:56.859Z,4.81
2023-03-06T19:15:25.781Z,4.69
2023-03-06T19:17:52.387Z,4.68
2023-03-06T19:20:19.292Z,4.55
2023-03-06T19:22:45.916Z,4.55
2023-03-06T19:25:12.440Z,4.53
2023-03-06T19:27:38.921Z,4.58
2023-03-06T19:30:05.417Z,4.56
2023-03-06T19:32:32.259Z,4.53
2023-03-06T19:35:01.718Z,4.51
2023-03-06T19:37:28.186Z,4.43
2023-03-06T19:39:55.207Z,4.51
2023-03-06T19:42:21.598Z,4.48
2023-03-06T19:44:47.993Z,4.41
2023-03-06T19:47:14.337Z,4.40
2023-03-06T19:49:40.747Z,4.36
2023-03-06T19:52:09.334Z,4.45
2023-03-06T19:54:35.911Z,4.29
2023-03-06T19:57:02.312Z,4.27
2023-03-06T19:59:28.784Z,4.24
2023-03-06T20:01:55.201Z,4.20
2023-03-06T20:04:21.822Z,4.20
2023-03-06T20:06:48.768Z,4.12
2023-03-06T20:09:15.171Z,4.07
2023-03-06T20:11:41.531Z,4.00
2023-03-06T20:14:08.198Z,3.98
2023-03-06T20:16:34.651Z,3.94
2023-03-06T20:19:01.483Z,3.92
2023-03-06T20:21:28.121Z,3.90
2023-03-06T20:23:56.795Z,3.84
2023-03-06T20:26:23.147Z,3.79
2023-03-06T20:28:50.517Z,3.74
2023-03-06T20:31:18.001Z,3.70
2023-03-06T20:33:44.527Z,3.68
2023-03-06T20:36:10.948Z,3.63
2023-03-06T20:38:37.396Z,3.60
2023-03-06T20:41:03.871Z,3.59
2023-03-06T20:43:30.623Z,3.54
2023-03-06T20:45:57.372Z,3.53
2023-03-06T20:48:24.164Z,3.49
2023-03-06T20:50:50.801Z,3.43
2023-03-06T20:53:17.518Z,3.38
2023-03-06T20:55:44.178Z,3.28
2023-03-06T20:58:10.563Z,3.22
2023-03-06T21:00:36.924Z,3.19
2023-03-06T21:03:03.333Z,3.16
2023-03-06T21:05:29.832Z,3.14
2023-03-06T21:07:56.256Z,3.10
2023-03-06T21:10:23.691Z,3.04
2023-03-06T21:12:52.156Z,2.99
2023-03-06T21:15:18.678Z,2.96
2023-03-06T21:17:49.103Z,2.93
2023-03-06T21:20:15.860Z,2.77
2023-03-06T21:22:42.554Z,2.61
2023-03-06T21:25:09.984Z,2.46
2023-03-06T21:27:36.375Z,2.47
2023-03-06T21:30:02.791Z,2.49
2023-03-06T21:32:29.199Z,2.51
2023-03-06T21:34:55.600Z,2.52
2023-03-06T21:37:21.949Z,2.51
2023-03-06T21:39:48.353Z,2.53
2023-03-06T21:42:14.721Z,2.46
2023-03-06T21:44:41.147Z,2.42
2023-03-06T21:47:07.539Z,2.41
2023-03-06T21:49:33.939Z,2.37
2023-03-06T21:52:00.350Z,2.38
2023-03-06T21:54:26.742Z,2.39
2023-03-06T21:57:00.819Z,2.28
2023-03-06T21:59:27.210Z,2.21
2023-03-06T22:01:53.610Z,2.18
2023-03-06T22:04:20.017Z,2.13
2023-03-06T22:06:46.489Z,2.04
2023-03-06T22:09:12.863Z,2.02
2023-03-06T22:11:39.208Z,1.96
2023-03-06T22:14:05.918Z,1.92
2023-03-06T22:16:32.321Z,1.83
2023-03-06T22:18:58.864Z,1.78
2023-03-06T22:21:26.303Z,1.77
2023-03-06T22:23:52.697Z,1.71
2023-03-06T22:26:21.341Z,1.66
2023-03-06T22:28:48.083Z,1.65
2023-03-06T22:31:14.570Z,1.71
2023-03-06T22:33:40.971Z,1.63
2023-03-06T22:36:07.341Z,1.57
2023-03-06T22:38:37.506Z,1.47
2023-03-06T22:41:04.228Z,1.47
2023-03-06T22:43:31.678Z,1.43
2023-03-06T22:45:58.208Z,1.45
2023-03-06T22:48:31.942Z,1.39
2023-03-06T22:50:58.396Z,1.25
2023-03-06T22:53:24.761Z,1.21
2023-03-06T22:55:54.404Z,1.24
2023-03-06T22:58:20.923Z,1.27
2023-03-06T23:00:48.311Z,1.31
2023-03-06T23:03:14.914Z,1.32
2023-03-06T23:05:41.275Z,1.36
2023-03-06T23:08:08.658Z,1.38
2023-03-06T23:10:35.225Z,1.43
2023-03-06T23:13:01.606Z,1.46
2023-03-06T23:15:28.023Z,1.52
2023-03-06T23:17:54.414Z,1.46
2023-03-06T23:20:22.985Z,1.41
2023-03-06T23:22:50.250Z,1.37
2023-03-06T23:25:16.644Z,1.41
2023-03-06T23:27:43.416Z,1.42
2023-03-06T23:30:09.765Z,1.45
2023-03-06T23:32:36.143Z,1.44
2023-03-06T23:35:03.545Z,1.43
2023-03-06T23:37:29.951Z,1.47
2023-03-06T23:39:56.529Z,1.45
2023-03-06T23:42:22.970Z,1.48
2023-03-06T23:44:51.689Z,1.51
2023-03-06T23:47:18.079Z,1.53
2023-03-06T23:49:44.480Z,1.54
2023-03-06T23:52:10.902Z,1.56
2023-03-06T23:54:37.258Z,1.58
2023-03-06T23:57:03.782Z,1.57
2023-03-06T23:59:30.331Z,1.50
